createdAt,value
2019-03-24T00:02:01.131Z,8.20
2019-03-24T00:04:29.212Z,8.10
2019-03-24T00:06:57.422Z,8.10
2019-03-24T00:09:25.251Z,8.10
2019-03-24T00:11:53.125Z,8.10
2019-03-24T00:14:21.030Z,8.10
2019-03-24T00:16:48.869Z,8.10
2019-03-24T00:19:16.892Z,8.10
2019-03-24T00:21:44.805Z,8.00
2019-03-24T00:24:13.214Z,8.00
2019-03-24T00:26:41.140Z,8.00
2019-03-24T00:29:09.285Z,8.00
2019-03-24T00:31:37.235Z,8.00
2019-03-24T00:34:05.050Z,8.00
2019-03-24T00:36:32.892Z,8.00
2019-03-24T00:39:00.832Z,7.90
2019-03-24T00:41:28.734Z,7.90
2019-03-24T00:43:56.639Z,7.90
2019-03-24T00:46:24.492Z,7.90
2019-03-24T00:48:52.961Z,7.90
2019-03-24T00:51:20.736Z,7.90
2019-03-24T00:53:48.680Z,7.90
2019-03-24T00:56:16.626Z,7.90
2019-03-24T00:58:44.566Z,7.80
2019-03-24T01:01:12.689Z,7.80
2019-03-24T01:03:40.500Z,7.80
2019-03-24T01:06:08.328Z,7.80
2019-03-24T01:08:36.701Z,7.80
2019-03-24T01:11:04.603Z,7.70
2019-03-24T01:13:32.546Z,7.70
2019-03-24T01:16:00.459Z,7.60
2019-03-24T01:18:28.310Z,7.60
2019-03-24T01:20:56.415Z,7.60
2019-03-24T01:23:24.694Z,7.60
2019-03-24T01:25:52.884Z,7.60
2019-03-24T01:28:20.810Z,7.60
2019-03-24T01:30:48.736Z,7.50
2019-03-24T01:33:16.645Z,7.50
2019-03-24T01:35:44.451Z,7.50
2019-03-24T01:38:12.299Z,7.50
2019-03-24T01:40:40.097Z,7.40
2019-03-24T01:43:07.961Z,7.40
2019-03-24T01:45:35.764Z,7.40
2019-03-24T01:48:03.725Z,7.50
2019-03-24T01:50:31.631Z,7.50
2019-03-24T01:52:59.732Z,7.40
2019-03-24T01:55:27.579Z,7.40
2019-03-24T01:57:55.429Z,7.40
2019-03-24T02:00:23.345Z,7.40
2019-03-24T02:02:51.816Z,7.40
2019-03-24T02:05:19.735Z,7.40
2019-03-24T02:07:47.567Z,7.40
2019-03-24T02:10:16.128Z,7.30
2019-03-24T02:12:43.941Z,7.30
2019-03-24T02:15:11.796Z,7.40
2019-03-24T02:17:39.914Z,7.40
2019-03-24T02:20:08.854Z,7.40
2019-03-24T02:22:36.935Z,7.50
2019-03-24T02:25:05.016Z,7.30
2019-03-24T02:27:32.955Z,7.30
2019-03-24T02:30:00.796Z,7.30
2019-03-24T02:32:28.704Z,7.30
2019-03-24T02:34:56.635Z,7.30
2019-03-24T02:37:24.578Z,7.30
2019-03-24T02:39:52.800Z,7.30
2019-03-24T02:42:20.712Z,7.30
2019-03-24T02:44:48.561Z,7.30
2019-03-24T02:47:16.413Z,7.30
2019-03-24T02:49:44.341Z,7.30
2019-03-24T02:52:12.187Z,7.20
2019-03-24T02:54:40.124Z,7.30
2019-03-24T02:57:07.936Z,7.20
2019-03-24T02:59:35.794Z,7.20
2019-03-24T03:02:04.197Z,7.10
2019-03-24T03:04:32.185Z,7.10
2019-03-24T03:07:00.052Z,7.00
2019-03-24T03:09:27.963Z,7.00
2019-03-24T03:11:55.874Z,7.00
2019-03-24T03:14:23.818Z,7.00
2019-03-24T03:16:51.809Z,7.00
2019-03-24T03:19:19.772Z,6.90
2019-03-24T03:21:47.600Z,6.80
2019-03-24T03:24:15.750Z,6.80
2019-03-24T03:26:43.677Z,6.80
2019-03-24T03:29:12.403Z,6.70
2019-03-24T03:31:40.230Z,6.70
2019-03-24T03:34:08.189Z,6.70
2019-03-24T03:36:36.361Z,6.70
2019-03-24T03:39:06.119Z,6.60
2019-03-24T03:41:33.972Z,6.60
2019-03-24T03:44:02.195Z,6.60
2019-03-24T03:46:30.415Z,6.50
2019-03-24T03:48:58.627Z,6.40
2019-03-24T03:51:26.567Z,6.30
2019-03-24T03:53:54.419Z,6.20
2019-03-24T03:56:22.843Z,6.10
2019-03-24T03:58:51.042Z,6.00
2019-03-24T04:01:19.257Z,6.00
2019-03-24T04:03:47.502Z,5.90
2019-03-24T04:06:15.475Z,5.90
2019-03-24T04:08:43.409Z,5.80
2019-03-24T04:11:11.371Z,5.70
2019-03-24T04:13:39.573Z,5.70
2019-03-24T04:16:07.813Z,5.60
2019-03-24T04:18:35.727Z,5.60
2019-03-24T04:21:03.922Z,5.50
2019-03-24T04:23:31.766Z,5.40
2019-03-24T04:25:59.990Z,5.40
2019-03-24T04:28:28.214Z,5.30
2019-03-24T04:30:56.467Z,5.30
2019-03-24T04:33:24.659Z,5.20
2019-03-24T04:35:52.571Z,5.20
2019-03-24T04:38:20.440Z,5.20
2019-03-24T04:40:48.358Z,5.10
2019-03-24T04:43:16.277Z,5.10
2019-03-24T04:45:44.188Z,5.10
2019-03-24T04:48:12.311Z,5.00
2019-03-24T04:50:40.151Z,4.90
2019-03-24T04:53:08.090Z,4.90
2019-03-24T04:55:35.983Z,4.90
2019-03-24T04:58:03.892Z,4.90
2019-03-24T05:00:34.750Z,4.80
2019-03-24T05:03:02.957Z,4.80
2019-03-24T05:05:30.988Z,4.80
2019-03-24T05:07:59.263Z,4.70
2019-03-24T05:10:27.266Z,4.70
2019-03-24T05:12:55.370Z,4.80
2019-03-24T05:15:23.779Z,4.70
2019-03-24T05:17:51.691Z,4.60
2019-03-24T05:20:19.511Z,4.60
2019-03-24T05:22:47.761Z,4.60
2019-03-24T05:25:15.496Z,4.50
2019-03-24T05:27:43.575Z,4.50
2019-03-24T05:30:11.709Z,4.50
2019-03-24T05:32:39.648Z,4.40
2019-03-24T05:35:07.705Z,4.40
2019-03-24T05:37:35.690Z,4.40
2019-03-24T05:40:04.316Z,4.40
2019-03-24T05:42:32.516Z,4.30
2019-03-24T05:45:00.668Z,4.20
2019-03-24T05:47:36.854Z,4.30
2019-03-24T05:49:58.672Z,4.30
2019-03-24T05:52:27.725Z,4.30
2019-03-24T05:54:56.432Z,4.30
2019-03-24T05:57:24.660Z,4.40
2019-03-24T05:59:52.511Z,4.30
2019-03-24T06:02:20.640Z,4.30
2019-03-24T06:04:48.462Z,4.30
2019-03-24T06:07:16.290Z,4.20
2019-03-24T06:09:44.428Z,4.20
2019-03-24T06:12:12.809Z,4.20
2019-03-24T06:14:41.031Z,4.20
2019-03-24T06:17:08.862Z,4.30
2019-03-24T06:19:36.988Z,4.30
2019-03-24T06:22:04.953Z,4.40
2019-03-24T06:24:32.877Z,4.40
2019-03-24T06:27:00.822Z,4.50
2019-03-24T06:29:28.692Z,4.50
2019-03-24T06:31:56.582Z,4.40
2019-03-24T06:34:24.401Z,4.40
2019-03-24T06:36:52.330Z,4.50
2019-03-24T06:39:20.565Z,4.40
2019-03-24T06:41:48.412Z,4.50
2019-03-24T06:44:16.722Z,4.50
2019-03-24T06:46:44.528Z,4.60
2019-03-24T06:49:12.648Z,4.60
2019-03-24T06:51:40.536Z,4.60
2019-03-24T06:54:08.461Z,4.70
2019-03-24T06:56:36.582Z,4.70
2019-03-24T06:59:04.431Z,4.80
2019-03-24T07:01:32.664Z,4.80
2019-03-24T07:04:00.605Z,4.80
2019-03-24T07:06:28.432Z,4.90
2019-03-24T07:08:56.999Z,4.90
2019-03-24T07:11:25.119Z,4.90
2019-03-24T07:13:53.071Z,5.00
2019-03-24T07:16:21.178Z,5.00
2019-03-24T07:18:49.379Z,5.10
2019-03-24T07:21:17.445Z,5.10
2019-03-24T07:23:45.370Z,5.10
2019-03-24T07:26:13.253Z,5.20
2019-03-24T07:28:41.463Z,5.20
2019-03-24T07:31:09.314Z,5.20
2019-03-24T07:33:37.672Z,5.30
2019-03-24T07:36:05.847Z,5.40
2019-03-24T07:38:33.766Z,5.60
2019-03-24T07:41:01.588Z,5.70
2019-03-24T07:43:29.998Z,5.70
2019-03-24T07:45:58.113Z,5.80
2019-03-24T07:48:26.183Z,5.80
2019-03-24T07:50:54.061Z,5.90
2019-03-24T07:53:22.250Z,5.90
2019-03-24T07:55:50.095Z,6.00
2019-03-24T07:58:18.547Z,6.10
2019-03-24T08:00:46.489Z,6.30
2019-03-24T08:03:14.426Z,6.30
2019-03-24T08:05:42.247Z,6.40
2019-03-24T08:08:10.325Z,6.50
2019-03-24T08:10:38.256Z,6.60
2019-03-24T08:13:06.212Z,6.70
2019-03-24T08:15:34.119Z,6.70
2019-03-24T08:18:01.954Z,6.60
2019-03-24T08:20:30.185Z,6.70
2019-03-24T08:22:58.040Z,6.70
2019-03-24T08:25:26.228Z,6.70
2019-03-24T08:27:54.439Z,6.80
2019-03-24T08:30:32.704Z,7.00
2019-03-24T08:33:00.929Z,7.10
2019-03-24T08:35:29.182Z,7.20
2019-03-24T08:37:57.828Z,7.30
2019-03-24T08:40:25.749Z,7.40
2019-03-24T08:42:53.847Z,7.60
2019-03-24T08:45:26.089Z,7.80
2019-03-24T08:47:54.219Z,7.80
2019-03-24T08:50:22.337Z,8.00
2019-03-24T08:52:50.179Z,8.10
2019-03-24T08:55:18.349Z,8.20
2019-03-24T08:57:46.158Z,8.30
2019-03-24T09:00:14.103Z,8.40
2019-03-24T09:02:42.630Z,8.50
2019-03-24T09:05:10.551Z,8.70
2019-03-24T09:07:38.513Z,8.90
2019-03-24T09:10:06.820Z,9.00
2019-03-24T09:12:34.963Z,9.00
2019-03-24T09:15:03.129Z,9.00
2019-03-24T09:17:31.193Z,9.10
2019-03-24T09:19:59.133Z,9.10
2019-03-24T09:22:27.592Z,9.00
2019-03-24T09:24:55.417Z,9.00
2019-03-24T09:27:23.259Z,9.10
2019-03-24T09:29:51.155Z,9.10
2019-03-24T09:32:19.122Z,9.30
2019-03-24T09:34:46.940Z,9.50
2019-03-24T09:37:14.805Z,9.60
2019-03-24T09:39:42.637Z,9.60
2019-03-24T09:42:10.518Z,9.70
2019-03-24T09:44:38.473Z,9.70
2019-03-24T09:47:06.394Z,9.80
2019-03-24T09:49:34.345Z,9.90
2019-03-24T09:52:02.485Z,10.40
2019-03-24T09:54:30.349Z,11.00
2019-03-24T09:56:58.653Z,11.60
2019-03-24T09:59:26.551Z,12.30
2019-03-24T10:01:54.382Z,12.50
2019-03-24T10:04:22.595Z,13.10
2019-03-24T10:06:50.532Z,13.20
2019-03-24T10:09:18.536Z,13.60
2019-03-24T10:11:48.989Z,14.80
2019-03-24T10:14:16.438Z,14.50
2019-03-24T10:16:44.697Z,15.00
2019-03-24T10:19:14.264Z,14.70
2019-03-24T10:21:42.363Z,13.90
2019-03-24T10:24:10.247Z,14.50
2019-03-24T10:26:38.472Z,16.60
2019-03-24T10:29:06.316Z,17.10
2019-03-24T10:31:34.237Z,15.80
2019-03-24T10:34:02.084Z,16.60
2019-03-24T10:36:29.923Z,17.50
2019-03-24T10:38:57.992Z,17.50
2019-03-24T10:41:25.903Z,18.70
2019-03-24T10:43:54.183Z,17.80
2019-03-24T10:46:22.032Z,17.50
2019-03-24T10:48:49.871Z,17.50
2019-03-24T10:51:17.773Z,16.40
2019-03-24T10:53:45.770Z,16.60
2019-03-24T10:56:13.904Z,16.90
2019-03-24T10:58:42.224Z,16.90
2019-03-24T11:01:10.338Z,16.60
2019-03-24T11:03:38.196Z,16.60
2019-03-24T11:06:06.408Z,16.30
2019-03-24T11:08:34.288Z,16.30
2019-03-24T11:11:02.737Z,16.20
2019-03-24T11:13:32.731Z,16.00
2019-03-24T11:16:00.700Z,16.30
2019-03-24T11:18:28.631Z,16.20
2019-03-24T11:20:56.727Z,16.30
2019-03-24T11:23:24.871Z,16.00
2019-03-24T11:25:52.706Z,16.40
2019-03-24T11:28:20.966Z,17.00
2019-03-24T11:30:48.906Z,17.70
2019-03-24T11:33:16.735Z,18.80
2019-03-24T11:35:44.868Z,20.40
2019-03-24T11:38:13.382Z,20.40
2019-03-24T11:40:41.317Z,20.00
2019-03-24T11:43:09.292Z,18.90
2019-03-24T11:45:37.729Z,19.70
2019-03-24T11:48:05.663Z,20.50
2019-03-24T11:50:33.577Z,20.30
2019-03-24T11:53:01.517Z,19.80
2019-03-24T11:55:29.363Z,19.70
2019-03-24T11:58:05.246Z,19.50
2019-03-24T12:00:34.435Z,19.30
2019-03-24T12:03:02.660Z,19.40
2019-03-24T12:05:30.891Z,19.80
2019-03-24T12:07:59.056Z,20.50
2019-03-24T12:10:27.026Z,21.60
2019-03-24T12:12:54.949Z,20.90
2019-03-24T12:15:22.905Z,20.90
2019-03-24T12:17:50.917Z,21.70
2019-03-24T12:20:19.121Z,21.20
2019-03-24T12:22:46.972Z,21.30
2019-03-24T12:25:15.020Z,21.70
2019-03-24T12:27:42.974Z,21.10
2019-03-24T12:30:11.356Z,23.30
2019-03-24T12:32:39.311Z,23.60
2019-03-24T12:35:08.088Z,24.10
2019-03-24T12:37:35.912Z,24.30
2019-03-24T12:40:04.519Z,25.10
2019-03-24T12:42:32.794Z,24.80
2019-03-24T12:45:00.731Z,24.20
2019-03-24T12:47:28.680Z,24.30
2019-03-24T12:50:08.100Z,23.90
2019-03-24T12:52:26.278Z,24.30
2019-03-24T12:54:54.226Z,23.50
2019-03-24T12:57:22.366Z,24.80
2019-03-24T12:59:50.333Z,24.80
2019-03-24T13:02:18.581Z,25.70
2019-03-24T13:04:46.525Z,24.60
2019-03-24T13:07:14.789Z,23.10
2019-03-24T13:09:42.769Z,24.40
2019-03-24T13:12:10.614Z,24.90
2019-03-24T13:14:38.572Z,26.10
2019-03-24T13:17:06.442Z,27.50
2019-03-24T13:19:36.112Z,27.30
2019-03-24T13:22:04.320Z,25.80
2019-03-24T13:24:33.108Z,24.60
2019-03-24T13:27:00.939Z,24.80
2019-03-24T13:29:28.937Z,25.40
2019-03-24T13:31:56.948Z,25.70
2019-03-24T13:34:24.770Z,25.10
2019-03-24T13:36:53.029Z,24.50
2019-03-24T13:39:20.974Z,24.30
2019-03-24T13:41:48.828Z,24.60
2019-03-24T13:44:17.009Z,24.60
2019-03-24T13:46:45.216Z,25.80
2019-03-24T13:49:13.071Z,25.20
2019-03-24T13:51:41.320Z,25.60
2019-03-24T13:54:09.145Z,25.70
2019-03-24T13:56:37.363Z,24.30
2019-03-24T13:59:05.346Z,26.00
2019-03-24T14:01:33.975Z,26.30
2019-03-24T14:04:01.933Z,26.90
2019-03-24T14:06:29.968Z,27.50
2019-03-24T14:08:57.984Z,27.50
2019-03-24T14:11:26.294Z,27.80
2019-03-24T14:13:54.421Z,27.40
2019-03-24T14:16:22.292Z,26.30
2019-03-24T14:18:50.329Z,24.80
2019-03-24T14:21:18.775Z,22.90
2019-03-24T14:23:46.680Z,22.70
2019-03-24T14:26:14.978Z,24.90
2019-03-24T14:28:42.845Z,24.60
2019-03-24T14:31:10.745Z,24.20
2019-03-24T14:33:38.914Z,23.90
2019-03-24T14:36:06.882Z,23.70
2019-03-24T14:38:34.941Z,23.40
2019-03-24T14:41:03.239Z,23.30
2019-03-24T14:43:33.654Z,25.40
2019-03-24T14:46:01.038Z,27.30
2019-03-24T14:48:28.960Z,26.70
2019-03-24T14:50:56.771Z,25.40
2019-03-24T14:53:25.025Z,25.90
2019-03-24T14:55:52.941Z,24.70
2019-03-24T14:58:20.856Z,22.40
2019-03-24T15:00:48.803Z,23.10
2019-03-24T15:03:16.969Z,24.30
2019-03-24T15:05:45.138Z,26.00
2019-03-24T15:08:12.999Z,25.00
2019-03-24T15:10:40.971Z,23.50
2019-03-24T15:13:09.286Z,23.40
2019-03-24T15:15:37.550Z,22.00
2019-03-24T15:18:05.504Z,20.20
2019-03-24T15:20:33.495Z,20.00
2019-03-24T15:23:01.636Z,20.10
2019-03-24T15:25:29.504Z,19.80
2019-03-24T15:27:57.435Z,20.70
2019-03-24T15:30:25.284Z,21.30
2019-03-24T15:32:53.643Z,20.70
2019-03-24T15:35:21.545Z,19.20
2019-03-24T15:37:49.734Z,18.00
2019-03-24T15:40:17.672Z,16.80
2019-03-24T15:42:45.593Z,16.00
2019-03-24T15:45:13.780Z,15.50
2019-03-24T15:47:41.636Z,15.10
2019-03-24T15:50:09.690Z,14.70
2019-03-24T15:52:37.568Z,14.60
2019-03-24T15:55:05.892Z,14.30
2019-03-24T15:57:33.828Z,14.10
2019-03-24T16:00:01.714Z,14.10
2019-03-24T16:02:29.892Z,14.10
2019-03-24T16:04:57.845Z,13.80
2019-03-24T16:07:25.739Z,13.70
2019-03-24T16:09:53.993Z,13.70
2019-03-24T16:12:21.853Z,13.70
2019-03-24T16:14:49.740Z,13.80
2019-03-24T16:17:17.688Z,13.80
2019-03-24T16:19:45.691Z,13.80
2019-03-24T16:22:13.581Z,13.50
2019-03-24T16:24:41.800Z,13.70
2019-03-24T16:27:09.688Z,13.90
2019-03-24T16:29:38.496Z,14.80
2019-03-24T16:32:06.389Z,15.80
2019-03-24T16:34:34.241Z,16.10
2019-03-24T16:37:02.450Z,15.20
2019-03-24T16:39:30.323Z,14.30
2019-03-24T16:41:58.305Z,13.90
2019-03-24T16:44:26.932Z,13.50
2019-03-24T16:46:54.803Z,13.30
2019-03-24T16:49:22.674Z,13.10
2019-03-24T16:51:50.922Z,13.20
2019-03-24T16:54:18.880Z,13.00
2019-03-24T16:56:46.743Z,13.10
2019-03-24T16:59:14.595Z,13.20
2019-03-24T17:01:43.006Z,13.00
2019-03-24T17:04:11.267Z,12.90
2019-03-24T17:06:39.547Z,12.60
2019-03-24T17:09:07.454Z,12.40
2019-03-24T17:11:35.426Z,12.40
2019-03-24T17:14:03.629Z,12.20
2019-03-24T17:16:31.537Z,12.20
2019-03-24T17:18:59.398Z,12.10
2019-03-24T17:21:27.358Z,12.00
2019-03-24T17:23:55.201Z,11.90
2019-03-24T17:26:23.105Z,11.90
2019-03-24T17:28:51.054Z,11.80
2019-03-24T17:31:18.983Z,11.80
2019-03-24T17:33:46.856Z,11.60
2019-03-24T17:36:15.057Z,11.50
2019-03-24T17:38:42.900Z,11.40
2019-03-24T17:41:11.115Z,11.30
2019-03-24T17:43:39.073Z,11.20
2019-03-24T17:46:06.929Z,11.20
2019-03-24T17:48:35.104Z,11.20
2019-03-24T17:51:03.048Z,11.10
2019-03-24T17:53:30.973Z,11.10
2019-03-24T17:55:58.843Z,10.90
2019-03-24T17:58:26.992Z,10.90
2019-03-24T18:00:56.283Z,10.80
2019-03-24T18:03:24.259Z,10.60
2019-03-24T18:05:52.177Z,10.50
2019-03-24T18:08:20.332Z,10.50
2019-03-24T18:10:48.174Z,10.40
2019-03-24T18:13:16.272Z,10.40
2019-03-24T18:15:44.581Z,10.30
2019-03-24T18:18:12.574Z,10.30
2019-03-24T18:20:40.423Z,10.30
2019-03-24T18:23:08.643Z,10.20
2019-03-24T18:25:36.588Z,10.10
2019-03-24T18:28:04.789Z,10.00
2019-03-24T18:30:32.784Z,10.00
2019-03-24T18:33:00.781Z,10.00
2019-03-24T18:35:28.758Z,9.80
2019-03-24T18:37:56.700Z,9.70
2019-03-24T18:40:24.611Z,9.70
2019-03-24T18:42:52.796Z,9.60
2019-03-24T18:45:20.768Z,9.50
2019-03-24T18:47:48.706Z,9.50
2019-03-24T18:50:16.906Z,9.40
2019-03-24T18:52:45.140Z,9.30
2019-03-24T18:55:13.429Z,9.20
2019-03-24T18:57:41.416Z,9.30
2019-03-24T19:00:09.941Z,9.30
2019-03-24T19:02:38.552Z,9.20
2019-03-24T19:05:08.989Z,9.20
2019-03-24T19:07:37.207Z,9.10
2019-03-24T19:10:05.985Z,9.10
2019-03-24T19:12:34.089Z,9.10
2019-03-24T19:15:02.325Z,9.00
2019-03-24T19:17:30.674Z,9.00
2019-03-24T19:19:58.689Z,9.00
2019-03-24T19:22:33.489Z,9.00
2019-03-24T19:24:56.896Z,9.00
2019-03-24T19:27:24.916Z,8.90
2019-03-24T19:29:53.186Z,8.90
2019-03-24T19:32:21.178Z,8.90
2019-03-24T19:34:49.130Z,8.80
2019-03-24T19:37:17.364Z,8.80
2019-03-24T19:39:45.302Z,8.70
2019-03-24T19:42:13.537Z,8.70
2019-03-24T19:44:41.414Z,8.50
2019-03-24T19:47:09.573Z,8.50
2019-03-24T19:49:37.516Z,8.50
2019-03-24T19:52:05.657Z,8.40
2019-03-24T19:54:33.598Z,8.40
2019-03-24T19:57:01.602Z,8.30
2019-03-24T19:59:29.789Z,8.30
2019-03-24T20:01:57.770Z,8.20
2019-03-24T20:04:25.659Z,8.10
2019-03-24T20:06:53.752Z,8.10
2019-03-24T20:09:21.714Z,8.10
2019-03-24T20:11:50.106Z,8.00
2019-03-24T20:14:18.223Z,7.90
2019-03-24T20:16:46.136Z,8.00
2019-03-24T20:19:14.111Z,8.00
2019-03-24T20:21:41.994Z,7.90
2019-03-24T20:24:10.516Z,7.90
2019-03-24T20:26:39.379Z,7.80
2019-03-24T20:29:07.379Z,7.90
2019-03-24T20:31:35.781Z,7.80
2019-03-24T20:34:03.799Z,7.80
2019-03-24T20:36:31.943Z,7.90
2019-03-24T20:39:00.215Z,7.90
2019-03-24T20:41:28.245Z,7.90
2019-03-24T20:43:56.191Z,7.80
2019-03-24T20:46:24.049Z,7.70
2019-03-24T20:48:51.914Z,7.60
2019-03-24T20:51:19.802Z,7.60
2019-03-24T20:53:47.739Z,7.60
2019-03-24T20:56:15.688Z,7.60
2019-03-24T20:58:43.608Z,7.60
2019-03-24T21:01:12.017Z,7.60
2019-03-24T21:03:39.986Z,7.60
2019-03-24T21:06:07.990Z,7.50
2019-03-24T21:08:35.976Z,7.50
2019-03-24T21:11:04.067Z,7.50
2019-03-24T21:13:31.930Z,7.40
2019-03-24T21:15:59.824Z,7.40
2019-03-24T21:18:28.133Z,7.40
2019-03-24T21:20:56.189Z,7.40
2019-03-24T21:23:29.460Z,7.40
2019-03-24T21:25:54.013Z,7.60
2019-03-24T21:28:22.076Z,7.70
2019-03-24T21:30:50.395Z,7.60
2019-03-24T21:33:18.474Z,7.70
2019-03-24T21:35:46.708Z,7.70
2019-03-24T21:38:14.893Z,7.70
2019-03-24T21:40:42.974Z,7.70
2019-03-24T21:43:11.107Z,7.70
2019-03-24T21:45:39.129Z,7.70
2019-03-24T21:48:07.603Z,7.60
2019-03-24T21:50:35.577Z,7.60
2019-03-24T21:53:04.005Z,7.60
2019-03-24T21:55:31.925Z,7.70
2019-03-24T21:58:00.177Z,7.60
2019-03-24T22:00:34.825Z,7.60
2019-03-24T22:03:03.494Z,7.60
2019-03-24T22:05:31.460Z,7.60
2019-03-24T22:07:59.439Z,7.60
2019-03-24T22:10:27.331Z,7.60
2019-03-24T22:12:55.260Z,7.60
2019-03-24T22:15:23.148Z,7.50
2019-03-24T22:17:51.182Z,7.50
2019-03-24T22:20:19.176Z,7.40
2019-03-24T22:22:47.059Z,7.30
2019-03-24T22:25:15.307Z,7.30
2019-03-24T22:27:43.321Z,7.20
2019-03-24T22:30:12.004Z,7.20
2019-03-24T22:32:39.968Z,7.10
2019-03-24T22:35:07.847Z,7.10
2019-03-24T22:37:36.446Z,7.00
2019-03-24T22:40:05.432Z,7.00
2019-03-24T22:42:33.439Z,6.90
2019-03-24T22:45:01.589Z,6.90
2019-03-24T22:47:29.556Z,6.80
2019-03-24T22:49:58.085Z,6.70
2019-03-24T22:52:26.306Z,6.70
2019-03-24T22:54:54.173Z,6.70
2019-03-24T22:57:22.109Z,6.70
2019-03-24T22:59:50.275Z,6.70
2019-03-24T23:02:18.451Z,6.60
2019-03-24T23:04:47.026Z,6.60
2019-03-24T23:07:15.553Z,6.60
2019-03-24T23:09:43.623Z,6.50
2019-03-24T23:12:12.955Z,6.50
2019-03-24T23:14:40.836Z,6.40
2019-03-24T23:17:08.656Z,6.30
2019-03-24T23:19:36.532Z,6.40
2019-03-24T23:22:04.468Z,6.30
2019-03-24T23:24:32.679Z,6.30
2019-03-24T23:27:00.534Z,6.20
2019-03-24T23:29:28.372Z,6.30
2019-03-24T23:31:56.264Z,6.30
2019-03-24T23:34:24.279Z,6.30
2019-03-24T23:36:52.117Z,6.30
2019-03-24T23:39:20.315Z,6.20
2019-03-24T23:41:48.424Z,6.30
2019-03-24T23:44:16.627Z,6.20
2019-03-24T23:46:44.479Z,6.20
2019-03-24T23:49:12.716Z,6.20
2019-03-24T23:51:40.531Z,6.10
2019-03-24T23:54:08.680Z,6.10
2019-03-24T23:56:36.752Z,6.10
2019-03-24T23:59:04.612Z,6.20
